sensor_id;sensor_type;location;lat;lon;timestamp;pressure;altitude;pressure_sealevel;temperature;humidity
15444;BME280;7822;48.146;11.576;2023-12-14T00:01:30;93953.28;;;16.03;73.36
15444;BME280;7822;48.146;11.576;2023-12-14T00:03:57;93958.31;;;16.05;72.91
15444;BME280;7822;48.146;11.576;2023-12-14T00:06:25;93965.19;;;16.06;72.56
15444;BME280;7822;48.146;11.576;2023-12-14T00:08:54;93974.03;;;16.05;72.46
15444;BME280;7822;48.146;11.576;2023-12-14T00:11:22;93966.38;;;16.03;72.49
15444;BME280;7822;48.146;11.576;2023-12-14T00:13:49;93967.34;;;16.02;72.59
15444;BME280;7822;48.146;11.576;2023-12-14T00:16:17;93973.59;;;16.01;72.66
15444;BME280;7822;48.146;11.576;2023-12-14T00:18:44;93970.16;;;16.01;72.66
15444;BME280;7822;48.146;11.576;2023-12-14T00:21:12;93979.00;;;16.00;72.63
15444;BME280;7822;48.146;11.576;2023-12-14T00:23:39;93972.97;;;15.99;72.74
15444;BME280;7822;48.146;11.576;2023-12-14T00:26:08;93977.41;;;15.99;72.66
15444;BME280;7822;48.146;11.576;2023-12-14T00:28:36;93988.03;;;15.97;72.61
15444;BME280;7822;48.146;11.576;2023-12-14T00:31:03;93979.38;;;15.97;72.56
15444;BME280;7822;48.146;11.576;2023-12-14T00:33:31;93982.00;;;15.97;72.64
15444;BME280;7822;48.146;11.576;2023-12-14T00:35:59;93986.59;;;15.95;72.68
15444;BME280;7822;48.146;11.576;2023-12-14T00:38:26;93993.63;;;15.94;72.63
15444;BME280;7822;48.146;11.576;2023-12-14T00:40:54;93995.63;;;15.92;72.70
15444;BME280;7822;48.146;11.576;2023-12-14T00:43:23;94003.47;;;15.92;72.67
15444;BME280;7822;48.146;11.576;2023-12-14T00:45:50;94009.69;;;15.91;72.62
15444;BME280;7822;48.146;11.576;2023-12-14T00:48:19;94011.50;;;15.91;72.69
15444;BME280;7822;48.146;11.576;2023-12-14T00:50:46;94015.13;;;15.90;72.64
15444;BME280;7822;48.146;11.576;2023-12-14T00:53:14;94019.72;;;15.88;72.83
15444;BME280;7822;48.146;11.576;2023-12-14T00:55:42;94026.56;;;15.89;72.64
15444;BME280;7822;48.146;11.576;2023-12-14T00:58:11;94030.19;;;15.88;72.74
15444;BME280;7822;48.146;11.576;2023-12-14T01:00:40;94031.34;;;15.85;72.94
15444;BME280;7822;48.146;11.576;2023-12-14T01:03:08;94037.56;;;15.84;72.78
15444;BME280;7822;48.146;11.576;2023-12-14T01:05:36;94049.84;;;15.84;72.99
15444;BME280;7822;48.146;11.576;2023-12-14T01:08:04;94052.47;;;15.84;73.11
15444;BME280;7822;48.146;11.576;2023-12-14T01:10:32;94063.91;;;15.83;72.81
15444;BME280;7822;48.146;11.576;2023-12-14T01:13:00;94062.31;;;15.82;73.06
15444;BME280;7822;48.146;11.576;2023-12-14T01:15:28;94064.91;;;15.82;72.82
15444;BME280;7822;48.146;11.576;2023-12-14T01:17:57;94071.94;;;15.81;72.84
15444;BME280;7822;48.146;11.576;2023-12-14T01:20:24;94076.38;;;15.81;72.89
15444;BME280;7822;48.146;11.576;2023-12-14T01:22:52;94078.16;;;15.80;72.83
15444;BME280;7822;48.146;11.576;2023-12-14T01:25:20;94079.97;;;15.80;72.94
15444;BME280;7822;48.146;11.576;2023-12-14T01:27:47;94077.53;;;15.78;72.96
15444;BME280;7822;48.146;11.576;2023-12-14T01:30:15;94083.59;;;15.79;72.94
15444;BME280;7822;48.146;11.576;2023-12-14T01:32:42;94081.16;;;15.77;72.96
15444;BME280;7822;48.146;11.576;2023-12-14T01:35:11;94088.19;;;15.77;73.04
15444;BME280;7822;48.146;11.576;2023-12-14T01:37:39;94089.97;;;15.76;72.99
15444;BME280;7822;48.146;11.576;2023-12-14T01:40:07;94088.34;;;15.75;72.92
15444;BME280;7822;48.146;11.576;2023-12-14T01:42:34;94089.16;;;15.76;72.99
15444;BME280;7822;48.146;11.576;2023-12-14T01:45:03;94087.56;;;15.75;72.97
15444;BME280;7822;48.146;11.576;2023-12-14T01:47:30;94091.16;;;15.74;73.01
15444;BME280;7822;48.146;11.576;2023-12-14T01:49:58;94088.53;;;15.74;73.20
15444;BME280;7822;48.146;11.576;2023-12-14T01:52:27;94102.63;;;15.73;72.98
15444;BME280;7822;48.146;11.576;2023-12-14T01:54:54;94108.63;;;15.73;73.16
15444;BME280;7822;48.146;11.576;2023-12-14T01:57:25;94104.41;;;15.72;73.19
15444;BME280;7822;48.146;11.576;2023-12-14T01:59:52;94108.00;;;15.71;73.13
15444;BME280;7822;48.146;11.576;2023-12-14T02:02:20;94119.28;;;15.72;73.32
15444;BME280;7822;48.146;11.576;2023-12-14T02:04:47;94122.09;;;15.70;73.22
15444;BME280;7822;48.146;11.576;2023-12-14T02:07:15;94128.13;;;15.71;73.38
15444;BME280;7822;48.146;11.576;2023-12-14T02:09:43;94133.38;;;15.71;73.24
15444;BME280;7822;48.146;11.576;2023-12-14T02:12:11;94134.53;;;15.68;73.37
15444;BME280;7822;48.146;11.576;2023-12-14T02:14:39;94135.31;;;15.69;73.23
15444;BME280;7822;48.146;11.576;2023-12-14T02:17:06;94140.56;;;15.69;73.26
15444;BME280;7822;48.146;11.576;2023-12-14T02:19:34;94137.94;;;15.69;73.23
15444;BME280;7822;48.146;11.576;2023-12-14T02:22:01;94141.56;;;15.68;73.25
15444;BME280;7822;48.146;11.576;2023-12-14T02:24:30;94141.38;;;15.69;73.43
15444;BME280;7822;48.146;11.576;2023-12-14T02:26:58;94145.00;;;15.68;73.19
15444;BME280;7822;48.146;11.576;2023-12-14T02:29:29;94145.97;;;15.67;73.46
15444;BME280;7822;48.146;11.576;2023-12-14T02:31:57;94157.25;;;15.68;73.49
15444;BME280;7822;48.146;11.576;2023-12-14T02:34:24;94155.59;;;15.67;73.34
15444;BME280;7822;48.146;11.576;2023-12-14T02:36:52;94156.44;;;15.67;73.45
15444;BME280;7822;48.146;11.576;2023-12-14T02:39:20;94172.13;;;15.67;73.53
15444;BME280;7822;48.146;11.576;2023-12-14T02:41:48;94165.28;;;15.66;73.40
15444;BME280;7822;48.146;11.576;2023-12-14T02:44:16;94173.13;;;15.66;73.37
15444;BME280;7822;48.146;11.576;2023-12-14T02:46:43;94174.91;;;15.66;73.53
15444;BME280;7822;48.146;11.576;2023-12-14T02:49:11;94175.75;;;15.66;73.61
15444;BME280;7822;48.146;11.576;2023-12-14T02:51:39;94176.91;;;15.64;73.57
15444;BME280;7822;48.146;11.576;2023-12-14T02:54:06;94176.91;;;15.64;73.43
15444;BME280;7822;48.146;11.576;2023-12-14T02:56:34;94182.13;;;15.64;73.44
15444;BME280;7822;48.146;11.576;2023-12-14T02:59:02;94184.75;;;15.64;73.60
15444;BME280;7822;48.146;11.576;2023-12-14T03:01:30;94189.16;;;15.63;73.48
15444;BME280;7822;48.146;11.576;2023-12-14T03:03:57;94190.94;;;15.63;73.66
15444;BME280;7822;48.146;11.576;2023-12-14T03:06:25;94193.56;;;15.63;73.66
15444;BME280;7822;48.146;11.576;2023-12-14T03:08:53;94200.59;;;15.62;73.71
15444;BME280;7822;48.146;11.576;2023-12-14T03:11:20;94199.81;;;15.62;73.64
15444;BME280;7822;48.146;11.576;2023-12-14T03:13:48;94203.19;;;15.62;73.62
15444;BME280;7822;48.146;11.576;2023-12-14T03:16:18;94209.25;;;15.63;73.74
15444;BME280;7822;48.146;11.576;2023-12-14T03:18:45;94214.47;;;15.63;73.62
15444;BME280;7822;48.146;11.576;2023-12-14T03:21:14;94220.72;;;15.62;73.54
15444;BME280;7822;48.146;11.576;2023-12-14T03:23:41;94218.09;;;15.62;73.72
15444;BME280;7822;48.146;11.576;2023-12-14T03:26:09;94212.06;;;15.61;73.55
15444;BME280;7822;48.146;11.576;2023-12-14T03:28:36;94221.69;;;15.61;73.64
15444;BME280;7822;48.146;11.576;2023-12-14T03:31:04;94228.72;;;15.60;73.70
15444;BME280;7822;48.146;11.576;2023-12-14T03:33:33;94237.38;;;15.61;73.67
15444;BME280;7822;48.146;11.576;2023-12-14T03:36:00;94237.38;;;15.61;73.52
15444;BME280;7822;48.146;11.576;2023-12-14T03:38:28;94241.00;;;15.60;73.71
15444;BME280;7822;48.146;11.576;2023-12-14T03:40:56;94241.00;;;15.60;73.53
15444;BME280;7822;48.146;11.576;2023-12-14T03:43:23;94246.22;;;15.60;73.53
15444;BME280;7822;48.146;11.576;2023-12-14T03:45:51;94248.03;;;15.59;73.75
15444;BME280;7822;48.146;11.576;2023-12-14T03:48:18;94264.53;;;15.60;73.76
15444;BME280;7822;48.146;11.576;2023-12-14T03:50:47;94261.91;;;15.60;73.63
15444;BME280;7822;48.146;11.576;2023-12-14T03:53:15;94269.75;;;15.60;73.56
15444;BME280;7822;48.146;11.576;2023-12-14T03:55:42;94267.13;;;15.60;73.59
15444;BME280;7822;48.146;11.576;2023-12-14T03:58:10;94276.78;;;15.59;73.52
15444;BME280;7822;48.146;11.576;2023-12-14T04:00:37;94275.97;;;15.58;73.67
15444;BME280;7822;48.146;11.576;2023-12-14T04:03:05;94280.22;;;15.60;73.59
15444;BME280;7822;48.146;11.576;2023-12-14T04:05:33;94282.81;;;15.60;73.36
15444;BME280;7822;48.146;11.576;2023-12-14T04:08:02;94282.81;;;15.60;73.42
15444;BME280;7822;48.146;11.576;2023-12-14T04:10:29;94285.44;;;15.60;73.56
15444;BME280;7822;48.146;11.576;2023-12-14T04:12:57;94296.69;;;15.60;73.45
15444;BME280;7822;48.146;11.576;2023-12-14T04:15:24;94294.06;;;15.60;73.43
15444;BME280;7822;48.146;11.576;2023-12-14T04:17:52;94305.53;;;15.59;73.50
15444;BME280;7822;48.146;11.576;2023-12-14T04:20:19;94307.34;;;15.58;73.36
15444;BME280;7822;48.146;11.576;2023-12-14T04:22:47;94314.19;;;15.60;73.34
15444;BME280;7822;48.146;11.576;2023-12-14T04:25:16;94312.56;;;15.58;73.58
15444;BME280;7822;48.146;11.576;2023-12-14T04:27:44;94317.78;;;15.58;73.47
15444;BME280;7822;48.146;11.576;2023-12-14T04:30:11;94324.00;;;15.57;73.60
15444;BME280;7822;48.146;11.576;2023-12-14T04:32:39;94330.03;;;15.58;73.43
15444;BME280;7822;48.146;11.576;2023-12-14T04:35:07;94334.44;;;15.57;73.39
15444;BME280;7822;48.146;11.576;2023-12-14T04:37:34;94339.84;;;15.56;73.45
15444;BME280;7822;48.146;11.576;2023-12-14T04:40:03;94338.06;;;15.56;73.54
15444;BME280;7822;48.146;11.576;2023-12-14T04:42:32;94339.84;;;15.56;73.55
15444;BME280;7822;48.146;11.576;2023-12-14T04:45:00;94346.72;;;15.57;73.60
15444;BME280;7822;48.146;11.576;2023-12-14T04:47:27;94348.53;;;15.56;73.61
15444;BME280;7822;48.146;11.576;2023-12-14T04:49:55;94346.72;;;15.57;73.51
15444;BME280;7822;48.146;11.576;2023-12-14T04:52:22;94353.94;;;15.55;73.46
15444;BME280;7822;48.146;11.576;2023-12-14T04:54:50;94361.41;;;15.58;73.45
15444;BME280;7822;48.146;11.576;2023-12-14T04:57:17;94360.78;;;15.56;73.47
15444;BME280;7822;48.146;11.576;2023-12-14T04:59:46;94366.81;;;15.56;73.46
15444;BME280;7822;48.146;11.576;2023-12-14T05:02:14;94360.97;;;15.54;73.42
15444;BME280;7822;48.146;11.576;2023-12-14T05:04:41;94362.56;;;15.55;73.60
15444;BME280;7822;48.146;11.576;2023-12-14T05:07:09;94373.03;;;15.55;73.45
15444;BME280;7822;48.146;11.576;2023-12-14T05:09:36;94376.47;;;15.56;73.43
15444;BME280;7822;48.146;11.576;2023-12-14T05:12:04;94382.50;;;15.56;73.47
15444;BME280;7822;48.146;11.576;2023-12-14T05:14:32;94390.34;;;15.56;73.28
15444;BME280;7822;48.146;11.576;2023-12-14T05:17:01;94388.56;;;15.57;73.23
15444;BME280;7822;48.146;11.576;2023-12-14T05:19:28;94393.59;;;15.58;73.11
15444;BME280;7822;48.146;11.576;2023-12-14T05:22:00;94402.25;;;15.59;73.30
15444;BME280;7822;48.146;11.576;2023-12-14T05:24:29;94396.03;;;15.60;73.07
15444;BME280;7822;48.146;11.576;2023-12-14T05:26:56;94407.31;;;15.61;73.25
15444;BME280;7822;48.146;11.576;2023-12-14T05:29:24;94410.75;;;15.61;73.19
15444;BME280;7822;48.146;11.576;2023-12-14T05:31:51;94413.34;;;15.61;73.05
15444;BME280;7822;48.146;11.576;2023-12-14T05:34:20;94416.78;;;15.62;73.08
15444;BME280;7822;48.146;11.576;2023-12-14T05:36:48;94423.00;;;15.61;73.08
15444;BME280;7822;48.146;11.576;2023-12-14T05:39:15;94422.81;;;15.62;73.15
15444;BME280;7822;48.146;11.576;2023-12-14T05:41:43;94432.47;;;15.62;73.12
15444;BME280;7822;48.146;11.576;2023-12-14T05:44:10;94431.66;;;15.61;73.26
15444;BME280;7822;48.146;11.576;2023-12-14T05:46:39;94439.50;;;15.61;73.20
15444;BME280;7822;48.146;11.576;2023-12-14T05:49:07;94440.31;;;15.62;73.19
15444;BME280;7822;48.146;11.576;2023-12-14T05:51:36;94452.56;;;15.61;73.12
15444;BME280;7822;48.146;11.576;2023-12-14T05:54:05;94454.19;;;15.62;73.04
15444;BME280;7822;48.146;11.576;2023-12-14T05:56:33;94452.75;;;15.60;73.30
15444;BME280;7822;48.146;11.576;2023-12-14T05:59:04;94463.22;;;15.60;73.28
15444;BME280;7822;48.146;11.576;2023-12-14T06:01:32;94472.66;;;15.61;73.24
15444;BME280;7822;48.146;11.576;2023-12-14T06:04:00;94476.09;;;15.61;73.49
15444;BME280;7822;48.146;11.576;2023-12-14T06:06:28;94483.31;;;15.59;73.25
15444;BME280;7822;48.146;11.576;2023-12-14T06:08:57;94486.75;;;15.60;73.28
15444;BME280;7822;48.146;11.576;2023-12-14T06:11:25;94481.50;;;15.60;73.44
15444;BME280;7822;48.146;11.576;2023-12-14T06:13:52;94497.19;;;15.60;73.33
15444;BME280;7822;48.146;11.576;2023-12-14T06:16:20;94498.19;;;15.58;73.30
15444;BME280;7822;48.146;11.576;2023-12-14T06:18:47;94494.59;;;15.60;73.17
15444;BME280;7822;48.146;11.576;2023-12-14T06:21:15;94508.63;;;15.58;73.43
15444;BME280;7822;48.146;11.576;2023-12-14T06:23:43;94512.06;;;15.59;73.06
15444;BME280;7822;48.146;11.576;2023-12-14T06:26:13;94510.28;;;15.60;73.07
15444;BME280;7822;48.146;11.576;2023-12-14T06:28:41;94525.97;;;15.60;73.23
15444;BME280;7822;48.146;11.576;2023-12-14T06:31:11;94515.50;;;15.60;73.30
15444;BME280;7822;48.146;11.576;2023-12-14T06:33:39;94519.91;;;15.59;73.27
15444;BME280;7822;48.146;11.576;2023-12-14T06:36:07;94525.13;;;15.59;72.93
15444;BME280;7822;48.146;11.576;2023-12-14T06:38:37;94526.94;;;15.58;73.11
15444;BME280;7822;48.146;11.576;2023-12-14T06:41:05;94536.41;;;15.60;73.28
15444;BME280;7822;48.146;11.576;2023-12-14T06:43:34;94538.22;;;15.59;73.23
15444;BME280;7822;48.146;11.576;2023-12-14T06:46:01;94547.84;;;15.58;73.24
15444;BME280;7822;48.146;11.576;2023-12-14T06:48:29;94550.47;;;15.58;72.98
15444;BME280;7822;48.146;11.576;2023-12-14T06:50:57;94553.06;;;15.58;73.17
15444;BME280;7822;48.146;11.576;2023-12-14T06:53:25;94563.53;;;15.58;73.01
15444;BME280;7822;48.146;11.576;2023-12-14T06:55:52;94554.72;;;15.60;73.01
15444;BME280;7822;48.146;11.576;2023-12-14T06:58:20;94557.34;;;15.60;72.86
15444;BME280;7822;48.146;11.576;2023-12-14T07:00:49;94569.59;;;15.59;72.92
15444;BME280;7822;48.146;11.576;2023-12-14T07:03:16;94566.97;;;15.59;72.97
15444;BME280;7822;48.146;11.576;2023-12-14T07:05:44;94571.19;;;15.60;73.05
15444;BME280;7822;48.146;11.576;2023-12-14T07:08:12;94579.88;;;15.61;72.92
15444;BME280;7822;48.146;11.576;2023-12-14T07:10:40;94573.03;;;15.60;72.85
15444;BME280;7822;48.146;11.576;2023-12-14T07:13:08;94585.09;;;15.61;73.09
15444;BME280;7822;48.146;11.576;2023-12-14T07:15:35;94588.53;;;15.61;72.87
15444;BME280;7822;48.146;11.576;2023-12-14T07:18:04;94598.16;;;15.61;72.92
15444;BME280;7822;48.146;11.576;2023-12-14T07:20:32;94601.59;;;15.61;72.76
15444;BME280;7822;48.146;11.576;2023-12-14T07:22:59;94609.28;;;15.63;72.87
15444;BME280;7822;48.146;11.576;2023-12-14T07:25:27;94609.44;;;15.61;72.90
15444;BME280;7822;48.146;11.576;2023-12-14T07:27:55;94612.06;;;15.61;72.84
15444;BME280;7822;48.146;11.576;2023-12-14T07:30:22;94612.88;;;15.62;72.77
15444;BME280;7822;48.146;11.576;2023-12-14T07:32:50;94618.13;;;15.62;72.93
15444;BME280;7822;48.146;11.576;2023-12-14T07:35:20;94618.13;;;15.62;72.89
15444;BME280;7822;48.146;11.576;2023-12-14T07:37:47;94630.38;;;15.61;73.05
15444;BME280;7822;48.146;11.576;2023-12-14T07:40:15;94633.81;;;15.62;72.99
15444;BME280;7822;48.146;11.576;2023-12-14T07:42:43;94634.78;;;15.61;73.17
15444;BME280;7822;48.146;11.576;2023-12-14T07:45:10;94635.59;;;15.61;73.03
15444;BME280;7822;48.146;11.576;2023-12-14T07:47:38;94640.00;;;15.61;72.94
15444;BME280;7822;48.146;11.576;2023-12-14T07:50:06;94644.25;;;15.62;73.11
15444;BME280;7822;48.146;11.576;2023-12-14T07:52:35;94646.06;;;15.61;72.99
15444;BME280;7822;48.146;11.576;2023-12-14T07:55:04;94658.31;;;15.61;73.13
15444;BME280;7822;48.146;11.576;2023-12-14T07:57:31;94659.13;;;15.61;72.81
15444;BME280;7822;48.146;11.576;2023-12-14T07:59:59;94654.88;;;15.60;73.05
15444;BME280;7822;48.146;11.576;2023-12-14T08:02:27;94659.31;;;15.60;72.87
15444;BME280;7822;48.146;11.576;2023-12-14T08:04:54;94666.16;;;15.61;72.98
15444;BME280;7822;48.146;11.576;2023-12-14T08:07:22;94666.16;;;15.61;72.88
15444;BME280;7822;48.146;11.576;2023-12-14T08:09:51;94668.75;;;15.61;72.93
15444;BME280;7822;48.146;11.576;2023-12-14T08:12:18;94674.00;;;15.61;73.22
15444;BME280;7822;48.146;11.576;2023-12-14T08:14:47;94676.59;;;15.61;72.97
15444;BME280;7822;48.146;11.576;2023-12-14T08:17:15;94679.22;;;15.61;72.94
15444;BME280;7822;48.146;11.576;2023-12-14T08:19:42;94685.44;;;15.60;72.92
15444;BME280;7822;48.146;11.576;2023-12-14T08:22:10;94686.25;;;15.60;72.96
15444;BME280;7822;48.146;11.576;2023-12-14T08:24:39;94690.69;;;15.60;72.91
15444;BME280;7822;48.146;11.576;2023-12-14T08:27:07;94695.91;;;15.60;72.94
15444;BME280;7822;48.146;11.576;2023-12-14T08:29:35;94697.69;;;15.59;72.79
15444;BME280;7822;48.146;11.576;2023-12-14T08:32:03;94705.53;;;15.59;72.94
15444;BME280;7822;48.146;11.576;2023-12-14T08:34:31;94711.75;;;15.58;72.90
15444;BME280;7822;48.146;11.576;2023-12-14T08:37:00;94717.78;;;15.58;72.97
15444;BME280;7822;48.146;11.576;2023-12-14T08:39:27;94727.28;;;15.60;73.01
15444;BME280;7822;48.146;11.576;2023-12-14T08:41:55;94724.66;;;15.60;72.95
15444;BME280;7822;48.146;11.576;2023-12-14T08:44:24;94725.47;;;15.60;72.93
15444;BME280;7822;48.146;11.576;2023-12-14T08:46:51;94735.91;;;15.60;72.85
15444;BME280;7822;48.146;11.576;2023-12-14T08:49:19;94740.19;;;15.61;72.85
15444;BME280;7822;48.146;11.576;2023-12-14T08:51:46;94751.47;;;15.62;72.95
15444;BME280;7822;48.146;11.576;2023-12-14T08:54:14;94748.84;;;15.62;72.81
15444;BME280;7822;48.146;11.576;2023-12-14T08:56:41;94748.84;;;15.62;72.92
15444;BME280;7822;48.146;11.576;2023-12-14T08:59:09;94754.88;;;15.62;72.92
15444;BME280;7822;48.146;11.576;2023-12-14T09:01:38;94759.31;;;15.62;72.92
15444;BME280;7822;48.146;11.576;2023-12-14T09:04:06;94769.75;;;15.62;72.92
15444;BME280;7822;48.146;11.576;2023-12-14T09:06:34;94768.75;;;15.63;72.93
15444;BME280;7822;48.146;11.576;2023-12-14T09:09:01;94771.38;;;15.63;72.92
15444;BME280;7822;48.146;11.576;2023-12-14T09:11:29;94775.66;;;15.64;72.84
15444;BME280;7822;48.146;11.576;2023-12-14T09:13:57;94775.78;;;15.62;72.84
15444;BME280;7822;48.146;11.576;2023-12-14T09:16:24;94773.16;;;15.62;72.56
15444;BME280;7822;48.146;11.576;2023-12-14T09:18:54;94784.44;;;15.63;72.95
15444;BME280;7822;48.146;11.576;2023-12-14T09:21:22;94799.31;;;15.62;72.77
15444;BME280;7822;48.146;11.576;2023-12-14T09:24:03;94801.94;;;15.62;72.78
15444;BME280;7822;48.146;11.576;2023-12-14T09:26:31;94805.38;;;15.63;73.02
15444;BME280;7822;48.146;11.576;2023-12-14T09:28:59;94806.38;;;15.62;72.80
15444;BME280;7822;48.146;11.576;2023-12-14T09:31:26;94808.97;;;15.62;72.90
15444;BME280;7822;48.146;11.576;2023-12-14T09:33:56;94815.00;;;15.62;72.77
15444;BME280;7822;48.146;11.576;2023-12-14T09:36:23;94808.16;;;15.61;72.93
15444;BME280;7822;48.146;11.576;2023-12-14T09:38:51;94819.44;;;15.62;72.88
15444;BME280;7822;48.146;11.576;2023-12-14T09:41:18;94812.56;;;15.61;72.91
15444;BME280;7822;48.146;11.576;2023-12-14T09:43:46;94819.44;;;15.62;72.99
15444;BME280;7822;48.146;11.576;2023-12-14T09:46:13;94819.44;;;15.62;72.89
15444;BME280;7822;48.146;11.576;2023-12-14T09:48:42;94818.63;;;15.61;72.81
15444;BME280;7822;48.146;11.576;2023-12-14T09:51:11;94820.41;;;15.61;72.79
15444;BME280;7822;48.146;11.576;2023-12-14T09:53:39;94828.25;;;15.61;72.92
15444;BME280;7822;48.146;11.576;2023-12-14T09:56:07;94818.78;;;15.60;72.98
15444;BME280;7822;48.146;11.576;2023-12-14T09:58:34;94835.28;;;15.60;72.89
15444;BME280;7822;48.146;11.576;2023-12-14T10:01:02;94835.28;;;15.60;73.02
15444;BME280;7822;48.146;11.576;2023-12-14T10:03:30;94833.47;;;15.61;72.88
15444;BME280;7822;48.146;11.576;2023-12-14T10:05:59;94837.09;;;15.60;72.74
15444;BME280;7822;48.146;11.576;2023-12-14T10:08:29;94833.66;;;15.59;72.88
15444;BME280;7822;48.146;11.576;2023-12-14T10:10:57;94832.66;;;15.60;72.96
15444;BME280;7822;48.146;11.576;2023-12-14T10:13:36;94841.50;;;15.59;72.92
15444;BME280;7822;48.146;11.576;2023-12-14T10:16:04;94841.50;;;15.59;72.86
15444;BME280;7822;48.146;11.576;2023-12-14T10:18:31;94844.94;;;15.60;72.76
15444;BME280;7822;48.146;11.576;2023-12-14T10:21:01;94845.91;;;15.58;72.92
15444;BME280;7822;48.146;11.576;2023-12-14T10:23:29;94844.13;;;15.59;72.73
15444;BME280;7822;48.146;11.576;2023-12-14T10:25:57;94846.56;;;15.61;72.92
15444;BME280;7822;48.146;11.576;2023-12-14T10:28:25;94841.31;;;15.61;72.88
15444;BME280;7822;48.146;11.576;2023-12-14T10:30:52;94842.97;;;15.62;72.89
15444;BME280;7822;48.146;11.576;2023-12-14T10:33:20;94848.22;;;15.62;72.75
15444;BME280;7822;48.146;11.576;2023-12-14T10:35:48;94840.34;;;15.62;72.90
15444;BME280;7822;48.146;11.576;2023-12-14T10:38:16;94847.22;;;15.63;72.88
15444;BME280;7822;48.146;11.576;2023-12-14T10:40:46;94844.59;;;15.63;72.72
15444;BME280;7822;48.146;11.576;2023-12-14T10:43:13;94848.03;;;15.63;72.76
15444;BME280;7822;48.146;11.576;2023-12-14T10:46:03;94849.69;;;15.64;72.70
15444;BME280;7822;48.146;11.576;2023-12-14T10:48:31;94852.28;;;15.64;72.74
15444;BME280;7822;48.146;11.576;2023-12-14T10:50:59;94854.91;;;15.64;72.82
15444;BME280;7822;48.146;11.576;2023-12-14T10:53:29;94861.94;;;15.64;73.17
15444;BME280;7822;48.146;11.576;2023-12-14T10:55:58;94858.50;;;15.63;72.90
15444;BME280;7822;48.146;11.576;2023-12-14T10:58:26;94862.75;;;15.64;72.83
15444;BME280;7822;48.146;11.576;2023-12-14T11:00:59;94869.78;;;15.64;72.90
15444;BME280;7822;48.146;11.576;2023-12-14T11:03:32;94873.34;;;15.63;72.91
15444;BME280;7822;48.146;11.576;2023-12-14T11:06:00;94875.16;;;15.62;72.86
15444;BME280;7822;48.146;11.576;2023-12-14T11:08:40;94879.41;;;15.63;72.99
15444;BME280;7822;48.146;11.576;2023-12-14T11:11:10;94891.66;;;15.63;73.00
15444;BME280;7822;48.146;11.576;2023-12-14T11:13:39;94891.66;;;15.63;73.23
15444;BME280;7822;48.146;11.576;2023-12-14T11:16:08;94885.59;;;15.62;72.84
15444;BME280;7822;48.146;11.576;2023-12-14T11:18:35;94894.28;;;15.63;72.90
15444;BME280;7822;48.146;11.576;2023-12-14T11:21:03;94899.50;;;15.63;73.00
15444;BME280;7822;48.146;11.576;2023-12-14T11:23:32;94903.91;;;15.62;72.98
15444;BME280;7822;48.146;11.576;2023-12-14T11:26:01;94890.84;;;15.62;72.94
15444;BME280;7822;48.146;11.576;2023-12-14T11:28:32;94898.53;;;15.64;72.89
15444;BME280;7822;48.146;11.576;2023-12-14T11:31:01;94907.53;;;15.61;72.90
15444;BME280;7822;48.146;11.576;2023-12-14T11:33:28;94909.97;;;15.63;72.98
15444;BME280;7822;48.146;11.576;2023-12-14T11:35:56;94910.97;;;15.62;72.87
15444;BME280;7822;48.146;11.576;2023-12-14T11:38:24;94913.56;;;15.62;72.84
15444;BME280;7822;48.146;11.576;2023-12-14T11:40:52;94912.56;;;15.63;73.02
15444;BME280;7822;48.146;11.576;2023-12-14T11:43:19;94921.41;;;15.62;72.86
15444;BME280;7822;48.146;11.576;2023-12-14T11:45:49;94924.03;;;15.62;72.94
15444;BME280;7822;48.146;11.576;2023-12-14T11:48:17;94921.41;;;15.62;73.02
15444;BME280;7822;48.146;11.576;2023-12-14T11:50:47;94925.66;;;15.63;72.89
15444;BME280;7822;48.146;11.576;2023-12-14T11:53:14;94922.22;;;15.62;72.68
15444;BME280;7822;48.146;11.576;2023-12-14T11:55:42;94926.66;;;15.62;72.88
15444;BME280;7822;48.146;11.576;2023-12-14T11:58:11;94927.44;;;15.62;72.92
15444;BME280;7822;48.146;11.576;2023-12-14T12:00:40;94929.25;;;15.62;72.92
15444;BME280;7822;48.146;11.576;2023-12-14T12:03:09;94933.50;;;15.63;72.99
15444;BME280;7822;48.146;11.576;2023-12-14T12:05:37;94941.34;;;15.63;73.00
15444;BME280;7822;48.146;11.576;2023-12-14T12:08:06;94933.50;;;15.63;73.00
15444;BME280;7822;48.146;11.576;2023-12-14T12:10:34;94942.16;;;15.63;73.00
15444;BME280;7822;48.146;11.576;2023-12-14T12:13:02;94949.03;;;15.64;72.88
15444;BME280;7822;48.146;11.576;2023-12-14T12:15:31;94945.59;;;15.64;72.85
15444;BME280;7822;48.146;11.576;2023-12-14T12:17:59;94954.28;;;15.64;72.88
15444;BME280;7822;48.146;11.576;2023-12-14T12:20:28;94949.03;;;15.64;72.89
15444;BME280;7822;48.146;11.576;2023-12-14T12:22:55;94950.84;;;15.64;73.02
15444;BME280;7822;48.146;11.576;2023-12-14T12:25:23;94953.44;;;15.64;72.97
15444;BME280;7822;48.146;11.576;2023-12-14T12:27:51;94954.28;;;15.64;73.13
15444;BME280;7822;48.146;11.576;2023-12-14T12:30:19;94953.44;;;15.64;73.13
15444;BME280;7822;48.146;11.576;2023-12-14T12:32:46;94956.91;;;15.64;73.20
15444;BME280;7822;48.146;11.576;2023-12-14T12:35:14;94961.28;;;15.64;73.09
15444;BME280;7822;48.146;11.576;2023-12-14T12:37:43;94966.66;;;15.62;73.12
15444;BME280;7822;48.146;11.576;2023-12-14T12:40:11;94970.94;;;15.63;73.03
15444;BME280;7822;48.146;11.576;2023-12-14T12:42:38;94967.50;;;15.63;73.02
15444;BME280;7822;48.146;11.576;2023-12-14T12:45:06;94965.69;;;15.63;73.14
15444;BME280;7822;48.146;11.576;2023-12-14T12:47:33;94975.19;;;15.64;73.13
15444;BME280;7822;48.146;11.576;2023-12-14T12:50:01;94971.75;;;15.64;73.04
15444;BME280;7822;48.146;11.576;2023-12-14T12:52:29;94977.94;;;15.63;73.21
15444;BME280;7822;48.146;11.576;2023-12-14T12:54:58;94976.16;;;15.63;73.34
15444;BME280;7822;48.146;11.576;2023-12-14T12:57:26;94981.38;;;15.63;73.30
15444;BME280;7822;48.146;11.576;2023-12-14T12:59:54;94977.94;;;15.63;73.18
15444;BME280;7822;48.146;11.576;2023-12-14T13:02:21;94985.78;;;15.63;73.10
15444;BME280;7822;48.146;11.576;2023-12-14T13:04:49;94988.41;;;15.63;73.05